Branchland, West Virginia
Current Conditions -  °F | °C
As of 7:51 AM on Saturday 25 Oct 2014 (Local Time) from KHTS Reporting Station
Clear Clear  
Wind Chill: 39°   Ceiling: Unl
Heat Index: 42°   Visibility: 9mi
Dew Point: 41°   Wind: 5mph
Humidity: 96%   Direction: 190°S
Pressure: 30.03"   Gusts: NA
Location:  38.22°N, 82.2°W
Report Text: KHTS 251151Z 19004KT 9SM CLR 06/05 A3003 RMK AO2 SLP172 T00560050 10067 20044 50003
Loading
Personal Weather Stations






























Interactive Weather Map
Tropical Storm Tracking
New forecast layout! Learn more

10-Day Weather Forecast

Advertisements
Track Severe Weather on mobile